| time (UTC) | temp C | wind direction | speed KPH | gust KPH | rain 1hr cm | rain 24hr cm | rain mn cm | humidity % | barometer mb |
| 20260506212013 | 18 | 225 | 3.2 | 11.3 | 0.00 | 0.46 | 0.46 | 86 | 1007.0 |
| 20260506211532 | 18 | 226 | 4.8 | 11.3 | 0.00 | 0.46 | 0.46 | 86 | 1007.0 |
| 20260506211012 | 18 | 249 | 4.8 | 11.3 | 0.00 | 0.46 | 0.46 | 86 | 1007.0 |
| 20260506210514 | 18 | 211 | 3.2 | 8.0 | 0.00 | 0.46 | 0.46 | 87 | 1006.9 |
| 20260506210029 | 18 | 225 | 3.2 | 9.7 | 0.00 | 0.46 | 0.46 | 88 | 1006.9 |
| 20260506205512 | 18 | 219 | 3.2 | 9.7 | 0.00 | 0.46 | 0.46 | 88 | 1007.0 |
| 20260506205012 | 17 | 190 | 1.6 | 8.0 | 0.00 | 0.46 | 0.46 | 89 | 1007.1 |
| 20260506204532 | 17 | 172 | 1.6 | 9.7 | 0.00 | 0.46 | 0.46 | 89 | 1007.0 |
| 20260506204013 | 17 | 215 | 4.8 | 9.7 | 0.00 | 0.46 | 0.46 | 89 | 1007.0 |
| 20260506203515 | 17 | 0 | 0.0 | 9.7 | 0.00 | 0.46 | 0.46 | 89 | 1007.0 |
| 20260506203030 | 17 | 216 | 3.2 | 9.7 | 0.00 | 0.46 | 0.46 | 89 | 1007.0 |
| 20260506202514 | 17 | 204 | 3.2 | 11.3 | 0.00 | 0.46 | 0.46 | 89 | 1007.1 |
| 20260506202014 | 17 | 209 | 6.4 | 11.3 | 0.00 | 0.46 | 0.46 | 89 | 1007.0 |
| 20260506201541 | 17 | 195 | 3.2 | 8.0 | 0.00 | 0.46 | 0.46 | 90 | 1007.0 |
| 20260506201017 | 17 | 168 | 1.6 | 8.0 | 0.00 | 0.46 | 0.46 | 90 | 1007.0 |
| 20260506200515 | 17 | 232 | 3.2 | 11.3 | 0.00 | 0.46 | 0.46 | 91 | 1007.0 |
| 20260506200033 | 17 | 211 | 3.2 | 14.5 | 0.00 | 0.46 | 0.46 | 90 | 1007.1 |
| 20260506195515 | 17 | 192 | 4.8 | 14.5 | 0.00 | 0.46 | 0.46 | 91 | 1007.0 |
| 20260506195018 | 17 | 186 | 0.0 | 16.1 | 0.00 | 0.46 | 0.46 | 92 | 1007.2 |
| 20260506194534 | 17 | 213 | 1.6 | 16.1 | 0.00 | 0.46 | 0.46 | 91 | 1007.2 |
| 20260506194018 | 16 | 132 | 1.6 | 12.9 | 0.00 | 0.46 | 0.46 | 92 | 1007.2 |
| 20260506193515 | 16 | 196 | 1.6 | 14.5 | 0.00 | 0.46 | 0.46 | 92 | 1007.3 |
| 20260506193035 | 16 | 234 | 4.8 | 14.5 | 0.00 | 0.46 | 0.46 | 91 | 1007.3 |
| 20260506192519 | 16 | 0 | 1.6 | 9.7 | 0.00 | 0.46 | 0.46 | 92 | 1007.4 |
| 20260506192016 | 16 | 200 | 3.2 | 8.0 | 0.00 | 0.46 | 0.46 | 92 | 1007.5 |
| 20260506191532 | 16 | 189 | 0.0 | 16.1 | 0.00 | 0.46 | 0.46 | 92 | 1007.4 |
| 20260506191016 | 16 | 138 | 4.8 | 16.1 | 0.00 | 0.46 | 0.46 | 92 | 1007.5 |
| 20260506190516 | 16 | 256 | 6.4 | 16.1 | 0.00 | 0.46 | 0.46 | 92 | 1007.5 |
| 20260506190033 | 16 | 198 | 4.8 | 11.3 | 0.00 | 0.46 | 0.46 | 92 | 1007.5 |
| 20260506185517 | 16 | 0 | 1.6 | 8.0 | 0.00 | 0.46 | 0.46 | 92 | 1007.5 |
| 20260506185014 | 16 | 213 | 3.2 | 11.3 | 0.00 | 0.46 | 0.46 | 92 | 1007.6 |
| 20260506184531 | 16 | 302 | 4.8 | 11.3 | 0.00 | 0.46 | 0.46 | 92 | 1007.7 |
| 20260506184016 | 16 | 232 | 3.2 | 11.3 | 0.00 | 0.46 | 0.46 | 92 | 1007.8 |
| 20260506183515 | 16 | 226 | 4.8 | 11.3 | 0.00 | 0.46 | 0.46 | 92 | 1007.9 |
| 20260506183032 | 16 | 226 | 3.2 | 11.3 | 0.00 | 0.46 | 0.46 | 91 | 1007.9 |
| 20260506182516 | 16 | 267 | 3.2 | 11.3 | 0.00 | 0.46 | 0.46 | 91 | 1007.9 |
| 20260506182018 | 16 | 182 | 3.2 | 9.7 | 0.00 | 0.46 | 0.46 | 91 | 1007.9 |
| 20260506181530 | 16 | 191 | 4.8 | 9.7 | 0.00 | 0.46 | 0.46 | 91 | 1007.9 |
| 20260506181014 | 16 | 214 | 1.6 | 14.5 | 0.00 | 0.46 | 0.46 | 92 | 1008.0 |
| 20260506180518 | 16 | 263 | 6.4 | 14.5 | 0.00 | 0.46 | 0.46 | 91 | 1008.0 |
| 20260506180034 | 16 | 246 | 3.2 | 12.9 | 0.00 | 0.46 | 0.46 | 92 | 1008.1 |
| 20260506175516 | 16 | 257 | 4.8 | 12.9 | 0.00 | 0.46 | 0.46 | 91 | 1008.1 |
| 20260506175015 | 16 | 257 | 3.2 | 12.9 | 0.00 | 0.46 | 0.46 | 92 | 1008.1 |
| 20260506174529 | 16 | 250 | 4.8 | 12.9 | 0.00 | 0.46 | 0.46 | 92 | 1008.1 |
| 20260506174016 | 16 | 171 | 4.8 | 12.9 | 0.00 | 0.46 | 0.46 | 92 | 1008.1 |
| 20260506173516 | 16 | 236 | 4.8 | 20.9 | 0.00 | 0.46 | 0.46 | 92 | 1008.0 |
| 20260506173037 | 16 | 207 | 4.8 | 20.9 | 0.03 | 0.46 | 0.46 | 92 | 1008.1 |
| 20260506172515 | 16 | 169 | 4.8 | 20.9 | 0.03 | 0.46 | 0.46 | 92 | 1008.0 |
| 20260506172017 | 16 | 302 | 6.4 | 20.9 | 0.03 | 0.46 | 0.46 | 92 | 1008.1 |
| 20260506171543 | 16 | 286 | 6.4 | 12.9 | 0.03 | 0.46 | 0.46 | 92 | 1008.2 |
| 20260506171017 | 16 | 225 | 6.4 | 12.9 | 0.05 | 0.46 | 0.46 | 92 | 1008.3 |
| 20260506170516 | 16 | 302 | 1.6 | 16.1 | 0.05 | 0.46 | 0.46 | 92 | 1008.4 |
| 20260506170030 | 16 | 212 | 4.8 | 16.1 | 0.05 | 0.46 | 0.46 | 92 | 1008.4 |
| 20260506165519 | 16 | 249 | 3.2 | 24.1 | 0.08 | 0.46 | 0.46 | 92 | 1008.4 |
| 20260506165020 | 16 | 214 | 6.4 | 24.1 | 0.08 | 0.46 | 0.46 | 92 | 1008.3 |
| 20260506164530 | 16 | 212 | 6.4 | 24.1 | 0.10 | 0.46 | 0.46 | 92 | 1008.3 |
| 20260506164021 | 16 | 172 | 9.7 | 24.1 | 0.13 | 0.46 | 0.46 | 92 | 1008.3 |
| 20260506163520 | 16 | 252 | 6.4 | 22.5 | 0.13 | 0.46 | 0.46 | 92 | 1008.3 |
| 20260506163039 | 16 | 205 | 9.7 | 22.5 | 0.13 | 0.43 | 0.43 | 92 | 1008.4 |
| 20260506162519 | 16 | 184 | 9.7 | 22.5 | 0.15 | 0.43 | 0.43 | 93 | 1008.1 |
| 20260506162015 | 16 | 221 | 8.0 | 16.1 | 0.18 | 0.43 | 0.43 | 92 | 1007.9 |
| 20260506161533 | 16 | 159 | 8.0 | 16.1 | 0.20 | 0.43 | 0.43 | 92 | 1007.8 |
| 20260506161015 | 16 | 159 | 6.4 | 16.1 | 0.20 | 0.41 | 0.41 | 92 | 1008.2 |
| 20260506160518 | 16 | 128 | 4.8 | 17.7 | 0.23 | 0.41 | 0.41 | 92 | 1008.6 |
| 20260506160034 | 16 | 180 | 6.4 | 17.7 | 0.23 | 0.41 | 0.41 | 92 | 1008.9 |
| 20260506155517 | 16 | 180 | 3.2 | 16.1 | 0.23 | 0.38 | 0.38 | 92 | 1009.1 |
| 20260506155014 | 16 | 181 | 4.8 | 16.1 | 0.23 | 0.38 | 0.38 | 92 | 1009.2 |
| 20260506154537 | 16 | 161 | 3.2 | 11.3 | 0.20 | 0.36 | 0.36 | 91 | 1009.4 |
| 20260506154022 | 16 | 165 | 3.2 | 16.1 | 0.18 | 0.33 | 0.33 | 91 | 1009.2 |
| 20260506153516 | 16 | 181 | 6.4 | 16.1 | 0.20 | 0.33 | 0.33 | 91 | 1009.2 |
| 20260506153029 | 16 | 211 | 4.8 | 17.7 | 0.20 | 0.30 | 0.30 | 91 | 1009.5 |
| 20260506152518 | 16 | 193 | 6.4 | 17.7 | 0.20 | 0.28 | 0.28 | 90 | 1009.5 |
| 20260506152015 | 16 | 174 | 3.2 | 22.5 | 0.20 | 0.25 | 0.25 | 90 | 1009.5 |
| 20260506151532 | 16 | 152 | 9.7 | 22.5 | 0.18 | 0.23 | 0.23 | 90 | 1009.5 |
| 20260506151017 | 16 | 138 | 4.8 | 24.1 | 0.18 | 0.20 | 0.20 | 90 | 1009.5 |
| 20260506150515 | 16 | 0 | 6.4 | 24.1 | 0.15 | 0.18 | 0.18 | 90 | 1009.6 |
| 20260506150033 | 16 | 194 | 4.8 | 12.9 | 0.18 | 0.18 | 0.18 | 90 | 1009.4 |
| 20260506145515 | 16 | 216 | 6.4 | 12.9 | 0.15 | 0.15 | 0.15 | 90 | 1009.4 |
| 20260506145012 | 16 | 163 | 3.2 | 11.3 | 0.15 | 0.15 | 0.15 | 90 | 1009.4 |
| 20260506144529 | 16 | 225 | 3.2 | 12.9 | 0.15 | 0.15 | 0.15 | 90 | 1009.3 |
| 20260506144014 | 16 | 198 | 3.2 | 14.5 | 0.15 | 0.15 | 0.15 | 89 | 1009.2 |
| 20260506143516 | 16 | 180 | 6.4 | 14.5 | 0.13 | 0.13 | 0.13 | 88 | 1009.2 |
| 20260506143030 | 16 | 184 | 6.4 | 19.3 | 0.10 | 0.10 | 0.10 | 87 | 1009.3 |
| 20260506142511 | 17 | 171 | 4.8 | 19.3 | 0.08 | 0.08 | 0.08 | 86 | 1009.2 |
| 20260506142013 | 17 | 195 | 6.4 | 12.9 | 0.05 | 0.05 | 0.05 | 85 | 1009.2 |
| 20260506141531 | 17 | 137 | 1.6 | 19.3 | 0.05 | 0.05 | 0.05 | 85 | 1009.3 |
| 20260506141012 | 17 | 0 | 6.4 | 19.3 | 0.03 | 0.03 | 0.03 | 84 | 1009.3 |
| 20260506140518 | 17 | 163 | 8.0 | 14.5 | 0.03 | 0.03 | 0.03 | 83 | 1009.3 |
| 20260506140038 | 17 | 0 | 4.8 | 19.3 | 0.00 | 0.00 | 0.00 | 82 | 1009.2 |
| 20260506135513 | 18 | 219 | 6.4 | 20.9 | 0.00 | 0.00 | 0.00 | 83 | 1009.1 |
| 20260506135013 | 18 | 292 | 9.7 | 20.9 | 0.00 | 0.00 | 0.00 | 82 | 1009.1 |
| 20260506134528 | 18 | 213 | 11.3 | 20.9 | 0.00 | 0.00 | 0.00 | 81 | 1009.1 |
| 20260506134017 | 18 | 238 | 8.0 | 17.7 | 0.00 | 0.00 | 0.00 | 81 | 1009.0 |
| 20260506133511 | 18 | 205 | 8.0 | 17.7 | 0.00 | 0.00 | 0.00 | 80 | 1009.3 |
| 20260506133029 | 18 | 198 | 4.8 | 17.7 | 0.00 | 0.00 | 0.00 | 81 | 1009.4 |
| 20260506132510 | 18 | 153 | 6.4 | 17.7 | 0.00 | 0.00 | 0.00 | 80 | 1009.5 |
| 20260506132015 | 18 | 184 | 3.2 | 16.1 | 0.00 | 0.00 | 0.00 | 80 | 1009.4 |
| 20260506131533 | 18 | 242 | 3.2 | 16.1 | 0.00 | 0.00 | 0.00 | 80 | 1009.4 |
| 20260506131011 | 18 | 159 | 6.4 | 22.5 | 0.00 | 0.00 | 0.00 | 79 | 1009.5 |
| 20260506130518 | 18 | 173 | 1.6 | 22.5 | 0.00 | 0.00 | 0.00 | 79 | 1009.5 |
| 20260506130032 | 18 | 187 | 8.0 | 20.9 | 0.00 | 0.00 | 0.00 | 79 | 1009.5 |
| 20260506125512 | 18 | 244 | 4.8 | 16.1 | 0.00 | 0.00 | 0.00 | 79 | 1009.7 |
| 20260506125012 | 18 | 199 | 8.0 | 16.1 | 0.00 | 0.00 | 0.00 | 78 | 1009.7 |
| 20260506124531 | 18 | 202 | 6.4 | 16.1 | 0.00 | 0.00 | 0.00 | 77 | 1009.7 |
| 20260506124010 | 18 | 182 | 4.8 | 22.5 | 0.00 | 0.00 | 0.00 | 77 | 1009.6 |
| 20260506123512 | 18 | 222 | 9.7 | 22.5 | 0.00 | 0.00 | 0.00 | 76 | 1009.6 |
| 20260506123030 | 18 | 253 | 9.7 | 20.9 | 0.00 | 0.00 | 0.00 | 76 | 1009.5 |
| 20260506122511 | 18 | 178 | 8.0 | 20.9 | 0.00 | 0.00 | 0.00 | 76 | 1009.5 |
| 20260506122011 | 18 | 203 | 4.8 | 11.3 | 0.00 | 0.00 | 0.00 | 76 | 1009.4 |
| 20260506121532 | 18 | 264 | 3.2 | 16.1 | 0.00 | 0.00 | 0.00 | 77 | 1009.3 |
| 20260506121013 | 18 | 153 | 4.8 | 16.1 | 0.00 | 0.00 | 0.00 | 76 | 1009.3 |
| 20260506120514 | 18 | 184 | 3.2 | 16.1 | 0.00 | 0.00 | 0.00 | 76 | 1009.3 |
| 20260506120033 | 18 | 199 | 8.0 | 16.1 | 0.00 | 0.00 | 0.00 | 75 | 1009.3 |
| 20260506115514 | 18 | 178 | 8.0 | 14.5 | 0.00 | 0.00 | 0.00 | 76 | 1009.2 |
| 20260506115013 | 18 | 199 | 4.8 | 14.5 | 0.00 | 0.00 | 0.00 | 76 | 1009.3 |
| 20260506114529 | 18 | 142 | 3.2 | 12.9 | 0.00 | 0.00 | 0.00 | 76 | 1009.3 |
| 20260506114011 | 18 | 176 | 6.4 | 14.5 | 0.00 | 0.00 | 0.00 | 75 | 1009.3 |
| 20260506113511 | 18 | 190 | 4.8 | 16.1 | 0.00 | 0.00 | 0.00 | 76 | 1009.2 |
| 20260506113029 | 18 | 225 | 6.4 | 16.1 | 0.00 | 0.00 | 0.00 | 75 | 1009.3 |
| 20260506112512 | 18 | 161 | 8.0 | 16.1 | 0.00 | 0.00 | 0.00 | 75 | 1009.1 |
| 20260506112012 | 18 | 186 | 4.8 | 14.5 | 0.00 | 0.00 | 0.00 | 76 | 1009.3 |
| 20260506111538 | 18 | 159 | 8.0 | 17.7 | 0.00 | 0.00 | 0.00 | 75 | 1009.2 |
| 20260506111014 | 18 | 222 | 9.7 | 17.7 | 0.00 | 0.00 | 0.00 | 75 | 1009.2 |
| 20260506110514 | 18 | 234 | 4.8 | 17.7 | 0.00 | 0.00 | 0.00 | 76 | 1009.4 |
| 20260506110030 | 18 | 195 | 6.4 | 20.9 | 0.00 | 0.00 | 0.00 | 75 | 1009.2 |
| 20260506105514 | 18 | 198 | 6.4 | 24.1 | 0.00 | 0.00 | 0.00 | 75 | 1009.0 |
| 20260506105015 | 18 | 206 | 9.7 | 24.1 | 0.00 | 0.00 | 0.00 | 75 | 1009.0 |
| 20260506104533 | 18 | 179 | 6.4 | 16.1 | 0.00 | 0.00 | 0.00 | 75 | 1009.1 |
| 20260506104014 | 18 | 193 | 6.4 | 16.1 | 0.00 | 0.00 | 0.00 | 75 | 1009.1 |
| 20260506103514 | 18 | 217 | 6.4 | 16.1 | 0.00 | 0.00 | 0.00 | 76 | 1008.9 |
| 20260506103032 | 18 | 180 | 9.7 | 16.1 | 0.00 | 0.00 | 0.00 | 76 | 1008.8 |
| 20260506102517 | 18 | 161 | 6.4 | 16.1 | 0.00 | 0.00 | 0.00 | 76 | 1008.7 |
| 20260506102016 | 18 | 155 | 4.8 | 16.1 | 0.00 | 0.00 | 0.00 | 76 | 1008.8 |
| 20260506101535 | 18 | 168 | 6.4 | 12.9 | 0.00 | 0.00 | 0.00 | 76 | 1008.7 |
| 20260506101015 | 18 | 148 | 1.6 | 12.9 | 0.00 | 0.00 | 0.00 | 76 | 1008.7 |
| 20260506100515 | 18 | 180 | 4.8 | 12.9 | 0.00 | 0.00 | 0.00 | 76 | 1008.8 |
| 20260506100033 | 18 | 171 | 1.6 | 9.7 | 0.00 | 0.00 | 0.00 | 76 | 1008.7 |
| 20260506095517 | 18 | 149 | 3.2 | 8.0 | 0.00 | 0.00 | 0.00 | 75 | 1008.8 |
| 20260506095014 | 18 | 156 | 1.6 | 9.7 | 0.00 | 0.00 | 0.00 | 75 | 1008.9 |
| 20260506094532 | 18 | 150 | 1.6 | 9.7 | 0.00 | 0.00 | 0.00 | 75 | 1008.9 |
| 20260506094013 | 18 | 156 | 3.2 | 12.9 | 0.00 | 0.00 | 0.00 | 75 | 1008.8 |
| 20260506093517 | 18 | 131 | 1.6 | 12.9 | 0.00 | 0.00 | 0.00 | 75 | 1008.8 |
| 20260506093052 | 18 | 175 | 1.6 | 12.9 | 0.00 | 0.00 | 0.00 | 75 | 1008.8 |
| 20260506092512 | 18 | 152 | 4.8 | 12.9 | 0.00 | 0.00 | 0.00 | 75 | 1008.8 |
| 20260506092014 | 18 | 136 | 4.8 | 12.9 | 0.00 | 0.00 | 0.00 | 74 | 1008.8 |
| 20260506091533 | 18 | 161 | 4.8 | 17.7 | 0.00 | 0.00 | 0.00 | 74 | 1008.9 |
| 20260506091011 | 18 | 199 | 3.2 | 17.7 | 0.00 | 0.00 | 0.00 | 73 | 1008.8 |
| 20260506090515 | 18 | 218 | 8.0 | 17.7 | 0.00 | 0.00 | 0.00 | 73 | 1008.9 |
| 20260506090036 | 18 | 169 | 4.8 | 9.7 | 0.00 | 0.00 | 0.00 | 73 | 1008.8 |
| 20260506085516 | 19 | 132 | 4.8 | 9.7 | 0.00 | 0.03 | 0.00 | 73 | 1008.9 |
| 20260506085014 | 19 | 142 | 3.2 | 11.3 | 0.00 | 0.03 | 0.00 | 73 | 1008.9 |
| 20260506084530 | 19 | 178 | 4.8 | 16.1 | 0.00 | 0.03 | 0.00 | 73 | 1009.0 |
| 20260506084017 | 19 | 203 | 4.8 | 16.1 | 0.00 | 0.03 | 0.00 | 72 | 1008.9 |
| 20260506083514 | 19 | 219 | 4.8 | 19.3 | 0.00 | 0.03 | 0.00 | 72 | 1008.9 |
| 20260506083034 | 19 | 202 | 4.8 | 19.3 | 0.00 | 0.03 | 0.00 | 72 | 1008.9 |
| 20260506082520 | 19 | 196 | 6.4 | 17.7 | 0.00 | 0.03 | 0.00 | 72 | 1009.0 |
| 20260506082013 | 19 | 127 | 6.4 | 17.7 | 0.00 | 0.03 | 0.00 | 72 | 1008.9 |
| 20260506081532 | 19 | 171 | 3.2 | 12.9 | 0.00 | 0.03 | 0.00 | 72 | 1008.8 |
| 20260506081016 | 19 | 143 | 1.6 | 17.7 | 0.00 | 0.03 | 0.00 | 71 | 1008.9 |
| 20260506080515 | 19 | 160 | 8.0 | 17.7 | 0.00 | 0.03 | 0.00 | 71 | 1008.9 |
| 20260506073519 | 19 | 189 | 3.2 | 11.3 | 0.00 | 0.03 | 0.00 | 70 | 1009.0 |
| 20260506073032 | 19 | 183 | 6.4 | 11.3 | 0.00 | 0.03 | 0.00 | 70 | 1009.0 |
| 20260506072517 | 19 | 202 | 3.2 | 11.3 | 0.00 | 0.03 | 0.00 | 69 | 1009.1 |
| 20260506072018 | 19 | 198 | 3.2 | 11.3 | 0.00 | 0.03 | 0.00 | 69 | 1009.0 |
| 20260506071534 | 19 | 192 | 1.6 | 12.9 | 0.00 | 0.03 | 0.00 | 69 | 1009.0 |
| 20260506071010 | 19 | 185 | 6.4 | 12.9 | 0.00 | 0.03 | 0.00 | 68 | 1009.1 |
| 20260506070512 | 19 | 160 | 1.6 | 11.3 | 0.00 | 0.03 | 0.00 | 68 | 1009.2 |
| 20260506062511 | 20 | 0 | 1.6 | 19.3 | 0.00 | 0.03 | 0.00 | 65 | 1009.5 |
| 20260506062014 | 20 | 163 | 9.7 | 19.3 | 0.00 | 0.03 | 0.00 | 65 | 1009.6 |
| 20260506061530 | 20 | 220 | 3.2 | 17.7 | 0.00 | 0.03 | 0.00 | 65 | 1009.6 |
| 20260506061011 | 20 | 136 | 0.0 | 12.9 | 0.00 | 0.03 | 0.00 | 65 | 1009.5 |
| 20260506060513 | 20 | 207 | 3.2 | 12.9 | 0.00 | 0.03 | 0.00 | 65 | 1009.5 |
| 20260506051012 | 20 | 173 | 1.6 | 8.0 | 0.00 | 0.03 | 0.00 | 62 | 1009.9 |
| 20260506050511 | 20 | 217 | 1.6 | 17.7 | 0.00 | 0.03 | 0.00 | 61 | 1009.9 |
| 20260506045016 | 20 | 0 | 1.6 | 11.3 | 0.00 | 0.03 | 0.00 | 61 | 1010.0 |
| 20260506044533 | 20 | 192 | 4.8 | 11.3 | 0.00 | 0.03 | 0.00 | 61 | 1010.0 |
| 20260506044013 | 20 | 194 | 1.6 | 11.3 | 0.00 | 0.03 | 0.00 | 61 | 1010.1 |
| 20260506043513 | 20 | 155 | 3.2 | 14.5 | 0.00 | 0.03 | 0.00 | 61 | 1010.0 |
| 20260506043030 | 20 | 201 | 4.8 | 14.5 | 0.00 | 0.03 | 0.00 | 61 | 1010.0 |
| 20260506042513 | 20 | 163 | 1.6 | 9.7 | 0.00 | 0.03 | 0.00 | 61 | 1010.0 |
| 20260506042048 | 20 | 138 | 3.2 | 9.7 | 0.00 | 0.03 | 0.00 | 61 | 1010.1 |
| 20260506041530 | 20 | 182 | 3.2 | 9.7 | 0.00 | 0.03 | 0.00 | 60 | 1010.1 |
| 20260506041011 | 20 | 185 | 3.2 | 14.5 | 0.00 | 0.03 | 0.00 | 60 | 1010.0 |
| 20260506040515 | 20 | 0 | 6.4 | 14.5 | 0.00 | 0.03 | 0.00 | 60 | 1009.9 |
| 20260506040030 | 20 | 157 | 1.6 | 11.3 | 0.00 | 0.03 | 0.00 | 60 | 1010.0 |
| 20260506035515 | 20 | 0 | 3.2 | 11.3 | 0.00 | 0.03 | 0.03 | 60 | 1010.0 |
| 20260506035012 | 20 | 0 | 1.6 | 9.7 | 0.00 | 0.03 | 0.03 | 59 | 1010.0 |
| 20260506034532 | 20 | 196 | 3.2 | 9.7 | 0.00 | 0.03 | 0.03 | 59 | 1010.0 |
| 20260506034013 | 20 | 349 | 0.0 | 6.4 | 0.00 | 0.03 | 0.03 | 58 | 1010.0 |
| 20260506033515 | 20 | 232 | 3.2 | 8.0 | 0.00 | 0.03 | 0.03 | 58 | 1010.0 |
| 20260506033033 | 20 | 0 | 3.2 | 8.0 | 0.00 | 0.03 | 0.03 | 58 | 1010.0 |
| 20260506032513 | 21 | 226 | 1.6 | 9.7 | 0.00 | 0.03 | 0.03 | 58 | 1009.9 |
| 20260506032015 | 21 | 192 | 1.6 | 9.7 | 0.00 | 0.03 | 0.03 | 57 | 1009.9 |
| 20260506031530 | 21 | 170 | 1.6 | 14.5 | 0.00 | 0.03 | 0.03 | 57 | 1009.9 |
| 20260506031012 | 21 | 223 | 3.2 | 14.5 | 0.00 | 0.03 | 0.03 | 56 | 1010.0 |
| 20260506030513 | 21 | 103 | 3.2 | 9.7 | 0.00 | 0.03 | 0.03 | 56 | 1009.9 |
| 20260506030030 | 21 | 74 | 1.6 | 11.3 | 0.00 | 0.03 | 0.03 | 55 | 1010.0 |
| 20260506025513 | 21 | 218 | 3.2 | 11.3 | 0.00 | 0.03 | 0.03 | 56 | 1010.0 |
| 20260506025013 | 21 | 163 | 3.2 | 8.0 | 0.00 | 0.03 | 0.03 | 55 | 1009.9 |
| 20260506024529 | 21 | 173 | 3.2 | 8.0 | 0.00 | 0.03 | 0.03 | 54 | 1009.9 |
| 20260506024014 | 21 | 0 | 0.0 | 8.0 | 0.00 | 0.03 | 0.03 | 54 | 1009.9 |
| 20260506023513 | 21 | 186 | 1.6 | 9.7 | 0.00 | 0.03 | 0.03 | 54 | 1010.0 |
| 20260506023032 | 21 | 352 | 3.2 | 12.9 | 0.00 | 0.03 | 0.03 | 53 | 1010.0 |
| 20260506022515 | 22 | 166 | 3.2 | 12.9 | 0.00 | 0.03 | 0.03 | 53 | 1009.9 |
| 20260506022013 | 22 | 227 | 4.8 | 12.9 | 0.00 | 0.03 | 0.03 | 52 | 1010.0 |
| 20260506021530 | 22 | 129 | 3.2 | 9.7 | 0.00 | 0.03 | 0.03 | 52 | 1010.0 |
| 20260506021015 | 22 | 167 | 3.2 | 9.7 | 0.00 | 0.03 | 0.03 | 52 | 1010.1 |
| 20260506020514 | 22 | 0 | 0.0 | 17.7 | 0.00 | 0.03 | 0.03 | 51 | 1009.9 |
| 20260506020100 | 22 | 212 | 4.8 | 17.7 | 0.00 | 0.03 | 0.03 | 51 | 1009.9 |
| 20260506015512 | 22 | 190 | 6.4 | 17.7 | 0.00 | 0.03 | 0.03 | 51 | 1009.8 |
| 20260506015016 | 22 | 135 | 4.8 | 14.5 | 0.00 | 0.03 | 0.03 | 50 | 1009.7 |
| 20260506014531 | 22 | 203 | 3.2 | 9.7 | 0.00 | 0.03 | 0.03 | 49 | 1009.7 |
| 20260506014013 | 22 | 0 | 3.2 | 16.1 | 0.00 | 0.03 | 0.03 | 49 | 1009.6 |
| 20260506013520 | 23 | 188 | 4.8 | 17.7 | 0.00 | 0.03 | 0.03 | 48 | 1009.5 |
| 20260506013032 | 23 | 211 | 8.0 | 20.9 | 0.00 | 0.03 | 0.03 | 48 | 1009.5 |
| 20260506012515 | 23 | 207 | 9.7 | 20.9 | 0.00 | 0.03 | 0.03 | 48 | 1009.4 |
| 20260506012017 | 23 | 192 | 6.4 | 20.9 | 0.00 | 0.03 | 0.03 | 48 | 1009.4 |
| 20260506011534 | 23 | 191 | 6.4 | 20.9 | 0.00 | 0.03 | 0.03 | 47 | 1009.3 |
| 20260506011015 | 23 | 215 | 8.0 | 17.7 | 0.00 | 0.03 | 0.03 | 47 | 1009.2 |
| 20260506010515 | 23 | 202 | 1.6 | 17.7 | 0.00 | 0.03 | 0.03 | 46 | 1009.2 |
| 20260506010031 | 23 | 189 | 4.8 | 17.7 | 0.00 | 0.03 | 0.03 | 46 | 1009.1 |
| 20260506005517 | 23 | 166 | 3.2 | 17.7 | 0.00 | 0.03 | 0.03 | 46 | 1008.9 |
| 20260506005013 | 23 | 189 | 4.8 | 17.7 | 0.00 | 0.03 | 0.03 | 46 | 1008.9 |
| 20260506004539 | 23 | 188 | 4.8 | 16.1 | 0.00 | 0.03 | 0.03 | 45 | 1008.8 |
| 20260506004012 | 23 | 227 | 6.4 | 19.3 | 0.00 | 0.03 | 0.03 | 45 | 1008.8 |
| 20260506003514 | 23 | 202 | 6.4 | 19.3 | 0.00 | 0.03 | 0.03 | 45 | 1008.8 |
| 20260506003032 | 23 | 205 | 3.2 | 11.3 | 0.00 | 0.03 | 0.03 | 46 | 1008.7 |
| 20260506002514 | 24 | 169 | 1.6 | 12.9 | 0.00 | 0.03 | 0.03 | 45 | 1008.7 |
| 20260506002015 | 24 | 169 | 3.2 | 12.9 | 0.00 | 0.03 | 0.03 | 44 | 1008.7 |
| 20260506001535 | 24 | 180 | 4.8 | 20.9 | 0.00 | 0.03 | 0.03 | 43 | 1008.5 |
| 20260506001015 | 24 | 202 | 6.4 | 20.9 | 0.00 | 0.03 | 0.03 | 43 | 1008.5 |
| 20260506000515 | 24 | 157 | 6.4 | 16.1 | 0.00 | 0.03 | 0.03 | 43 | 1008.5 |
| 20260506000050 | 24 | 221 | 4.8 | 14.5 | 0.00 | 0.03 | 0.03 | 43 | 1008.5 |
| 20260505235516 | 24 | 161 | 4.8 | 14.5 | 0.00 | 0.03 | 0.03 | 43 | 1008.4 |
| 20260505235012 | 24 | 215 | 3.2 | 17.7 | 0.00 | 0.03 | 0.03 | 42 | 1008.5 |
| 20260505234532 | 25 | 210 | 6.4 | 17.7 | 0.00 | 0.03 | 0.03 | 42 | 1008.4 |
| 20260505234012 | 25 | 270 | 6.4 | 22.5 | 0.00 | 0.03 | 0.03 | 42 | 1008.3 |
| 20260505233515 | 25 | 254 | 6.4 | 22.5 | 0.00 | 0.03 | 0.03 | 42 | 1008.2 |
| 20260505233032 | 25 | 242 | 8.0 | 22.5 | 0.00 | 0.03 | 0.03 | 41 | 1008.2 |
| 20260505232514 | 25 | 252 | 6.4 | 22.5 | 0.00 | 0.03 | 0.03 | 42 | 1008.4 |
| 20260505232015 | 25 | 259 | 8.0 | 19.3 | 0.00 | 0.03 | 0.03 | 42 | 1008.3 |
| 20260505231532 | 25 | 181 | 8.0 | 20.9 | 0.00 | 0.03 | 0.03 | 42 | 1008.2 |
| 20260505231026 | 25 | 211 | 9.7 | 24.1 | 0.00 | 0.03 | 0.03 | 42 | 1008.3 |
| 20260505230513 | 25 | 221 | 8.0 | 29.0 | 0.00 | 0.03 | 0.03 | 42 | 1008.3 |
| 20260505230042 | 25 | 292 | 11.3 | 29.0 | 0.00 | 0.03 | 0.03 | 42 | 1008.2 |
| 20260505225515 | 25 | 124 | 11.3 | 22.5 | 0.00 | 0.03 | 0.03 | 42 | 1008.2 |
| 20260505225018 | 25 | 192 | 4.8 | 24.1 | 0.00 | 0.03 | 0.03 | 41 | 1008.2 |
| 20260505224542 | 25 | 153 | 8.0 | 27.4 | 0.00 | 0.03 | 0.03 | 41 | 1008.2 |
| 20260505224012 | 26 | 244 | 6.4 | 33.8 | 0.00 | 0.03 | 0.03 | 40 | 1008.1 |
| 20260505223512 | 26 | 193 | 11.3 | 33.8 | 0.00 | 0.03 | 0.03 | 40 | 1008.2 |
| 20260505223037 | 26 | 196 | 9.7 | 25.7 | 0.00 | 0.03 | 0.03 | 39 | 1008.2 |
| 20260505222515 | 26 | 220 | 11.3 | 30.6 | 0.00 | 0.03 | 0.03 | 38 | 1008.1 |
| 20260505222015 | 26 | 234 | 9.7 | 30.6 | 0.00 | 0.03 | 0.03 | 38 | 1008.0 |
| 20260505221529 | 26 | 192 | 16.1 | 37.0 | 0.00 | 0.03 | 0.03 | 37 | 1008.2 |
| 20260505221015 | 26 | 215 | 12.9 | 37.0 | 0.00 | 0.03 | 0.03 | 38 | 1008.2 |
| 20260505220513 | 26 | 290 | 12.9 | 32.2 | 0.00 | 0.03 | 0.03 | 38 | 1008.1 |
| 20260505220033 | 26 | 237 | 6.4 | 32.2 | 0.00 | 0.03 | 0.03 | 38 | 1008.1 |
| 20260505215516 | 26 | 176 | 12.9 | 32.2 | 0.00 | 0.03 | 0.03 | 38 | 1008.1 |
| 20260505215013 | 26 | 182 | 12.9 | 29.0 | 0.00 | 0.03 | 0.03 | 38 | 1007.9 |
| 20260505214530 | 27 | 209 | 9.7 | 32.2 | 0.00 | 0.03 | 0.03 | 38 | 1008.0 |
| 20260505214014 | 26 | 243 | 6.4 | 33.8 | 0.00 | 0.03 | 0.03 | 39 | 1008.2 |
| 20260505213515 | 26 | 168 | 14.5 | 33.8 | 0.00 | 0.03 | 0.03 | 38 | 1008.1 |
| 20260505213030 | 26 | 221 | 12.9 | 32.2 | 0.00 | 0.03 | 0.03 | 40 | 1008.2 |
| 20260505212513 | 26 | 208 | 17.7 | 32.2 | 0.00 | 0.03 | 0.03 | 39 | 1008.0 |